createdAt,value
2017-12-01T00:00:45.277Z,8.30
2017-12-01T00:03:13.540Z,6.93
2017-12-01T00:05:41.847Z,7.73
2017-12-01T00:08:10.117Z,8.15
2017-12-01T00:10:38.554Z,11.60
2017-12-01T00:13:06.858Z,12.30
2017-12-01T00:15:35.144Z,15.57
2017-12-01T00:18:03.421Z,7.60
2017-12-01T00:20:31.711Z,14.43
2017-12-01T00:22:59.982Z,11.43
2017-12-01T00:25:28.255Z,12.17
2017-12-01T00:27:56.515Z,9.87
2017-12-01T00:30:24.800Z,15.63
2017-12-01T00:32:53.068Z,7.07
2017-12-01T00:35:21.358Z,7.80
2017-12-01T00:37:49.614Z,10.50
2017-12-01T00:40:17.916Z,14.75
2017-12-01T00:42:46.209Z,11.55
2017-12-01T00:45:14.517Z,14.77
2017-12-01T00:47:42.843Z,8.57
2017-12-01T00:50:10.441Z,11.05
2017-12-01T00:52:38.491Z,8.37
2017-12-01T00:55:06.827Z,19.20
2017-12-01T00:57:35.514Z,20.27
2017-12-01T01:00:04.735Z,15.65
2017-12-01T01:02:33.077Z,9.83
2017-12-01T01:05:01.361Z,7.43
2017-12-01T01:07:29.658Z,7.50
2017-12-01T01:09:58.930Z,5.93
2017-12-01T01:12:27.224Z,5.80
2017-12-01T01:14:55.480Z,7.17
2017-12-01T01:17:23.773Z,7.37
2017-12-01T01:19:52.033Z,5.30
2017-12-01T01:22:20.301Z,7.53
2017-12-01T01:24:48.567Z,5.90
2017-12-01T01:27:16.873Z,5.97
2017-12-01T01:29:45.159Z,4.97
2017-12-01T01:32:13.418Z,5.60
2017-12-01T01:34:41.747Z,5.40
2017-12-01T01:37:10.037Z,4.80
2017-12-01T01:39:38.315Z,6.77
2017-12-01T01:42:06.582Z,5.70
2017-12-01T01:44:34.864Z,5.77
2017-12-01T01:47:03.130Z,5.07
2017-12-01T01:49:31.549Z,6.57
2017-12-01T01:51:59.828Z,6.55
2017-12-01T01:54:28.131Z,5.27
2017-12-01T01:56:56.408Z,6.00
2017-12-01T01:59:24.658Z,5.13
2017-12-01T02:01:52.940Z,5.40
2017-12-01T02:04:21.200Z,4.82
2017-12-01T02:06:49.488Z,4.90
2017-12-01T02:09:17.727Z,5.33
2017-12-01T02:11:46.184Z,5.67
2017-12-01T02:14:14.445Z,10.15
2017-12-01T02:16:42.702Z,7.03
2017-12-01T02:19:10.971Z,6.68
2017-12-01T02:21:39.235Z,7.97
2017-12-01T02:24:07.713Z,13.20
2017-12-01T02:26:35.998Z,11.10
2017-12-01T02:29:04.266Z,7.50
2017-12-01T02:31:32.534Z,5.30
2017-12-01T02:34:00.825Z,10.33
2017-12-01T02:36:29.094Z,25.40
2017-12-01T02:38:57.395Z,14.43
2017-12-01T02:41:25.670Z,8.00
2017-12-01T02:43:53.943Z,11.33
2017-12-01T02:46:22.212Z,12.90
2017-12-01T02:48:50.501Z,8.07
2017-12-01T02:51:18.778Z,6.25
2017-12-01T02:53:47.081Z,6.97
2017-12-01T02:56:15.351Z,6.50
2017-12-01T02:58:43.608Z,6.60
2017-12-01T03:01:11.890Z,5.83
2017-12-01T03:03:40.161Z,8.13
2017-12-01T03:06:08.443Z,6.55
2017-12-01T03:08:36.700Z,6.07
2017-12-01T03:11:04.975Z,6.90
2017-12-01T03:13:33.240Z,6.27
2017-12-01T03:16:01.510Z,8.10
2017-12-01T03:18:29.819Z,6.65
2017-12-01T03:20:58.092Z,9.10
2017-12-01T03:23:26.395Z,4.93
2017-12-01T03:25:54.641Z,5.07
2017-12-01T03:28:22.921Z,5.57
2017-12-01T03:30:51.276Z,6.03
2017-12-01T03:33:19.542Z,7.60
2017-12-01T03:35:47.806Z,5.90
2017-12-01T03:38:16.126Z,5.80
2017-12-01T03:40:44.374Z,6.27
2017-12-01T03:43:12.647Z,5.20
2017-12-01T03:45:40.936Z,6.77
2017-12-01T03:48:09.196Z,6.23
2017-12-01T03:50:37.471Z,5.70
2017-12-01T03:53:05.763Z,5.60
2017-12-01T03:55:34.499Z,6.93
2017-12-01T03:58:02.754Z,6.32
2017-12-01T04:00:31.350Z,9.90
2017-12-01T04:02:59.643Z,6.43
2017-12-01T04:05:27.901Z,6.10
2017-12-01T04:07:57.014Z,6.00
2017-12-01T04:10:25.303Z,6.13
2017-12-01T04:12:53.589Z,6.25
2017-12-01T04:15:21.856Z,6.10
2017-12-01T04:17:50.159Z,6.70
2017-12-01T04:20:18.402Z,5.78
2017-12-01T04:22:46.730Z,5.55
2017-12-01T04:25:14.996Z,7.13
2017-12-01T04:27:43.267Z,5.30
2017-12-01T04:30:11.560Z,6.35
2017-12-01T04:32:39.835Z,5.57
2017-12-01T04:35:08.084Z,11.40
2017-12-01T04:37:36.407Z,5.27
2017-12-01T04:40:05.574Z,6.28
2017-12-01T04:42:33.852Z,5.73
2017-12-01T04:45:02.124Z,6.80
2017-12-01T04:47:30.396Z,7.67
2017-12-01T04:49:58.685Z,8.57
2017-12-01T04:52:26.941Z,7.90
2017-12-01T04:54:55.253Z,6.20
2017-12-01T04:57:23.511Z,7.33
2017-12-01T04:59:51.952Z,8.37
2017-12-01T05:02:20.225Z,7.25
2017-12-01T05:04:48.518Z,5.17
2017-12-01T05:07:16.760Z,5.50
2017-12-01T05:09:45.031Z,9.57
2017-12-01T05:12:13.336Z,4.80
2017-12-01T05:14:41.578Z,5.20
2017-12-01T05:17:09.858Z,5.00
2017-12-01T05:19:38.110Z,5.73
2017-12-01T05:22:06.529Z,5.60
2017-12-01T05:24:35.224Z,5.30
2017-12-01T05:27:03.499Z,5.30
2017-12-01T05:29:31.746Z,5.77
2017-12-01T05:32:00.024Z,7.47
2017-12-01T05:34:28.279Z,12.10
2017-12-01T05:36:56.558Z,6.40
2017-12-01T05:39:24.816Z,7.70
2017-12-01T05:41:53.124Z,8.03
2017-12-01T05:44:21.387Z,6.72
2017-12-01T05:46:50.138Z,8.03
2017-12-01T05:49:18.416Z,8.57
2017-12-01T05:51:46.700Z,7.07
2017-12-01T05:54:14.988Z,6.77
2017-12-01T05:56:43.254Z,7.90
2017-12-01T05:59:11.534Z,9.88
2017-12-01T06:01:39.800Z,7.33
2017-12-01T06:04:08.088Z,11.27
2017-12-01T06:06:36.353Z,10.37
2017-12-01T06:09:04.997Z,14.10
2017-12-01T06:11:33.247Z,11.30
2017-12-01T06:14:01.519Z,11.73
2017-12-01T06:16:29.780Z,10.37
2017-12-01T06:18:58.086Z,10.20
2017-12-01T06:21:26.751Z,8.20
2017-12-01T06:23:55.028Z,10.80
2017-12-01T06:26:23.334Z,15.10
2017-12-01T06:28:51.578Z,9.97
2017-12-01T06:31:19.865Z,9.45
2017-12-01T06:33:48.155Z,10.13
2017-12-01T06:36:16.453Z,9.17
2017-12-01T06:38:44.731Z,13.40
2017-12-01T06:41:14.088Z,9.77
2017-12-01T06:43:42.388Z,10.50
2017-12-01T06:46:10.642Z,11.63
2017-12-01T06:48:38.967Z,11.93
2017-12-01T06:51:07.282Z,13.65
2017-12-01T06:53:35.585Z,9.20
2017-12-01T06:56:03.832Z,6.40
2017-12-01T06:58:32.145Z,7.17
2017-12-01T07:01:00.383Z,11.87
2017-12-01T07:03:28.643Z,6.80
2017-12-01T07:05:56.921Z,6.87
2017-12-01T07:08:25.174Z,8.43
2017-12-01T07:10:53.485Z,10.90
2017-12-01T07:13:21.760Z,7.47
2017-12-01T07:15:50.049Z,9.80
2017-12-01T07:18:18.380Z,8.45
2017-12-01T07:20:46.643Z,7.00
2017-12-01T07:23:14.920Z,12.80
2017-12-01T07:25:43.224Z,7.90
2017-12-01T07:28:11.534Z,7.67
2017-12-01T07:30:39.787Z,10.40
2017-12-01T07:33:08.077Z,8.03
2017-12-01T07:35:36.465Z,6.40
2017-12-01T07:38:04.819Z,6.35
2017-12-01T07:40:33.133Z,5.70
2017-12-01T07:43:01.444Z,8.70
2017-12-01T07:45:29.722Z,6.33
2017-12-01T07:47:58.124Z,10.30
2017-12-01T07:50:26.513Z,7.23
2017-12-01T07:52:54.817Z,6.70
2017-12-01T07:55:23.122Z,6.57
2017-12-01T07:57:51.395Z,7.87
2017-12-01T08:00:20.179Z,10.90
2017-12-01T08:02:48.434Z,7.62
2017-12-01T08:05:16.719Z,7.68
2017-12-01T08:07:44.975Z,6.13
2017-12-01T08:10:13.239Z,9.87
2017-12-01T08:12:42.052Z,7.07
2017-12-01T08:15:10.313Z,8.02
2017-12-01T08:17:38.643Z,10.00
2017-12-01T08:20:06.894Z,7.63
2017-12-01T08:22:46.796Z,8.57
2017-12-01T08:25:24.875Z,9.60
2017-12-01T08:27:53.207Z,8.70
2017-12-01T08:30:21.467Z,11.68
2017-12-01T08:32:49.833Z,7.43
2017-12-01T08:35:18.096Z,12.85
2017-12-01T08:37:46.395Z,9.63
2017-12-01T08:40:14.795Z,17.73
2017-12-01T08:42:43.069Z,22.33
2017-12-01T08:45:11.427Z,8.77
2017-12-01T08:47:39.707Z,8.67
2017-12-01T08:50:08.040Z,13.10
2017-12-01T08:52:36.316Z,13.50
2017-12-01T08:55:05.251Z,15.27
2017-12-01T08:57:33.520Z,9.10
2017-12-01T09:00:01.894Z,9.80
2017-12-01T09:02:30.169Z,7.77
2017-12-01T09:04:58.457Z,6.43
2017-12-01T09:07:26.820Z,7.40
2017-12-01T09:09:55.115Z,6.73
2017-12-01T09:12:23.376Z,6.40
2017-12-01T09:14:52.272Z,6.12
2017-12-01T09:17:20.549Z,7.10
2017-12-01T09:19:48.832Z,6.73
2017-12-01T09:22:17.116Z,10.60
2017-12-01T09:24:45.394Z,6.70
2017-12-01T09:27:13.719Z,6.70
2017-12-01T09:29:42.076Z,6.55
2017-12-01T09:32:10.363Z,7.20
2017-12-01T09:34:38.660Z,5.67
2017-12-01T09:37:08.817Z,6.70
2017-12-01T09:39:37.163Z,5.07
2017-12-01T09:42:05.417Z,6.43
2017-12-01T09:44:33.707Z,7.93
2017-12-01T09:47:02.939Z,5.10
2017-12-01T09:49:31.355Z,4.70
2017-12-01T09:51:59.586Z,5.57
2017-12-01T09:54:27.903Z,5.40
2017-12-01T09:56:56.171Z,5.70
2017-12-01T09:59:25.004Z,7.13
2017-12-01T10:01:53.282Z,4.90
2017-12-01T10:04:21.735Z,5.68
2017-12-01T10:06:50.023Z,5.83
2017-12-01T10:09:18.339Z,5.87
2017-12-01T10:11:46.634Z,6.90
2017-12-01T10:14:14.910Z,7.00
2017-12-01T10:16:43.260Z,7.82
2017-12-01T10:19:11.482Z,9.70
2017-12-01T10:21:39.779Z,10.10
2017-12-01T10:24:08.060Z,7.13
2017-12-01T10:26:36.340Z,8.10
2017-12-01T10:29:04.687Z,8.37
2017-12-01T10:31:33.039Z,9.20
2017-12-01T10:34:01.403Z,7.53
2017-12-01T10:36:29.669Z,9.97
2017-12-01T10:38:57.918Z,10.45
2017-12-01T10:41:26.261Z,10.40
2017-12-01T10:43:54.539Z,7.40
2017-12-01T10:46:22.899Z,9.13
2017-12-01T10:48:51.264Z,8.40
2017-12-01T10:51:19.538Z,9.02
2017-12-01T10:53:47.854Z,7.50
2017-12-01T10:56:16.107Z,7.33
2017-12-01T10:58:44.384Z,7.23
2017-12-01T11:01:12.647Z,8.63
2017-12-01T11:03:41.839Z,10.80
2017-12-01T11:06:10.262Z,8.40
2017-12-01T11:08:38.559Z,20.47
2017-12-01T11:11:06.841Z,21.67
2017-12-01T11:13:35.158Z,15.93
2017-12-01T11:16:03.416Z,13.13
2017-12-01T11:18:31.905Z,16.30
2017-12-01T11:21:00.289Z,12.23
2017-12-01T11:23:28.522Z,15.03
2017-12-01T11:25:56.833Z,12.63
2017-12-01T11:28:25.108Z,16.43
2017-12-01T11:30:53.500Z,17.87
2017-12-01T11:33:21.763Z,16.17
2017-12-01T11:35:50.283Z,18.10
2017-12-01T11:38:18.538Z,13.60
2017-12-01T11:40:46.894Z,17.27
2017-12-01T11:43:15.170Z,14.02
2017-12-01T11:45:43.555Z,13.03
2017-12-01T11:48:11.886Z,21.15
2017-12-01T11:50:40.226Z,17.60
2017-12-01T11:53:08.580Z,18.15
2017-12-01T11:55:36.915Z,15.07
2017-12-01T11:58:05.243Z,15.90
2017-12-01T12:00:37.044Z,23.43
2017-12-01T12:03:05.348Z,19.57
2017-12-01T12:05:34.129Z,19.37
2017-12-01T12:08:02.418Z,17.13
2017-12-01T12:10:30.801Z,12.87
2017-12-01T12:12:59.128Z,17.23
2017-12-01T12:15:27.385Z,14.83
2017-12-01T12:17:55.716Z,9.30
2017-12-01T12:20:23.983Z,8.80
2017-12-01T12:22:52.248Z,10.20
2017-12-01T12:25:21.169Z,11.27
2017-12-01T12:27:50.394Z,10.97
2017-12-01T12:30:18.684Z,10.45
2017-12-01T12:32:47.660Z,12.53
2017-12-01T12:35:16.051Z,11.87
2017-12-01T12:37:44.327Z,13.75
2017-12-01T12:40:12.643Z,11.52
2017-12-01T12:42:40.951Z,11.90
2017-12-01T12:45:09.252Z,13.17
2017-12-01T12:47:37.640Z,11.77
2017-12-01T12:50:06.636Z,12.80
2017-12-01T12:52:35.095Z,10.77
2017-12-01T12:55:03.461Z,37.67
2017-12-01T12:57:31.794Z,10.00
2017-12-01T13:00:00.114Z,12.77
2017-12-01T13:02:28.445Z,11.27
2017-12-01T13:04:56.800Z,12.95
2017-12-01T13:07:25.076Z,16.70
2017-12-01T13:09:53.337Z,10.57
2017-12-01T13:12:21.649Z,10.55
2017-12-01T13:14:49.920Z,11.87
2017-12-01T13:17:18.311Z,9.03
2017-12-01T13:19:46.568Z,8.60
2017-12-01T13:22:14.876Z,9.03
2017-12-01T13:24:43.394Z,10.38
2017-12-01T13:27:11.687Z,7.60
2017-12-01T13:29:40.619Z,10.20
2017-12-01T13:32:08.951Z,6.50
2017-12-01T13:34:37.220Z,6.87
2017-12-01T13:37:05.926Z,7.68
2017-12-01T13:39:34.227Z,9.50
2017-12-01T13:42:02.497Z,9.60
2017-12-01T13:44:30.804Z,8.03
2017-12-01T13:46:59.096Z,8.17
2017-12-01T13:49:27.358Z,8.67
2017-12-01T13:51:55.681Z,9.40
2017-12-01T13:54:24.018Z,9.73
2017-12-01T13:56:52.301Z,9.30
2017-12-01T13:59:20.647Z,12.02
2017-12-01T14:01:49.002Z,12.13
2017-12-01T14:04:17.296Z,12.00
2017-12-01T14:06:45.643Z,9.95
2017-12-01T14:09:13.984Z,18.17
2017-12-01T14:11:42.298Z,14.10
2017-12-01T14:14:10.685Z,12.63
2017-12-01T14:16:39.067Z,13.27
2017-12-01T14:19:07.419Z,13.13
2017-12-01T14:21:35.716Z,11.73
2017-12-01T14:24:04.057Z,12.70
2017-12-01T14:26:32.322Z,14.03
2017-12-01T14:29:00.635Z,16.27
2017-12-01T14:31:29.018Z,13.87
2017-12-01T14:33:57.295Z,16.43
2017-12-01T14:36:25.616Z,16.60
2017-12-01T14:38:53.939Z,14.43
2017-12-01T14:41:22.360Z,17.85
2017-12-01T14:43:50.732Z,13.87
2017-12-01T14:46:19.089Z,16.12
2017-12-01T14:48:47.352Z,20.20
2017-12-01T14:51:15.663Z,16.70
2017-12-01T14:53:44.003Z,16.03
2017-12-01T14:56:12.319Z,16.60
2017-12-01T14:58:40.671Z,16.80
2017-12-01T15:01:08.973Z,12.97
2017-12-01T15:03:37.267Z,12.80
2017-12-01T15:06:05.566Z,14.60
2017-12-01T15:08:33.935Z,16.00
2017-12-01T15:11:02.221Z,17.67
2017-12-01T15:13:30.550Z,21.63
2017-12-01T15:15:58.849Z,16.20
2017-12-01T15:18:27.150Z,16.90
2017-12-01T15:20:57.166Z,14.83
2017-12-01T15:23:25.531Z,16.48
2017-12-01T15:25:53.827Z,16.03
2017-12-01T15:28:22.088Z,15.23
2017-12-01T15:30:50.376Z,18.83
2017-12-01T15:33:18.675Z,18.67
2017-12-01T15:35:46.950Z,12.83
2017-12-01T15:38:15.345Z,16.37
2017-12-01T15:40:43.680Z,13.07
2017-12-01T15:43:12.032Z,11.30
2017-12-01T15:45:40.298Z,12.60
2017-12-01T15:48:08.606Z,12.00
2017-12-01T15:50:36.883Z,12.33
2017-12-01T15:53:05.418Z,17.20
2017-12-01T15:55:33.814Z,12.17
2017-12-01T15:58:02.126Z,12.67
2017-12-01T16:00:30.451Z,13.83
2017-12-01T16:02:59.649Z,15.67
2017-12-01T16:05:27.930Z,13.30
2017-12-01T16:07:56.182Z,16.83
2017-12-01T16:10:24.528Z,16.50
2017-12-01T16:12:52.811Z,13.93
2017-12-01T16:15:21.196Z,19.70
2017-12-01T16:17:49.463Z,16.20
2017-12-01T16:20:17.790Z,19.23
2017-12-01T16:22:46.087Z,18.93
2017-12-01T16:25:14.366Z,17.67
2017-12-01T16:27:42.668Z,15.60
2017-12-01T16:30:11.764Z,16.37
2017-12-01T16:32:42.434Z,17.90
2017-12-01T16:35:08.416Z,13.55
2017-12-01T16:37:36.728Z,24.07
2017-12-01T16:40:05.282Z,15.87
2017-12-01T16:42:33.587Z,17.70
2017-12-01T16:45:01.848Z,14.57
2017-12-01T16:47:30.178Z,19.97
2017-12-01T16:49:59.385Z,8.83
2017-12-01T16:52:27.734Z,8.00
2017-12-01T16:54:56.088Z,9.83
2017-12-01T16:57:24.373Z,11.83
2017-12-01T16:59:52.656Z,15.40
2017-12-01T17:02:20.918Z,16.43
2017-12-01T17:04:49.222Z,19.53
2017-12-01T17:07:17.494Z,17.37
2017-12-01T17:09:45.788Z,17.37
2017-12-01T17:12:14.052Z,22.30
2017-12-01T17:14:42.309Z,17.20
2017-12-01T17:17:10.622Z,14.85
2017-12-01T17:19:38.966Z,21.97
2017-12-01T17:22:07.276Z,21.60
2017-12-01T17:24:35.611Z,23.20
2017-12-01T17:27:03.900Z,27.43
2017-12-01T17:29:32.151Z,19.73
2017-12-01T17:32:01.539Z,21.52
2017-12-01T17:34:29.852Z,20.40
2017-12-01T17:36:58.559Z,17.37
2017-12-01T17:39:26.945Z,18.97
2017-12-01T17:41:55.249Z,19.60
2017-12-01T17:44:23.555Z,16.80
2017-12-01T17:46:51.859Z,19.30
2017-12-01T17:49:20.170Z,19.77
2017-12-01T17:51:48.453Z,21.70
2017-12-01T17:54:18.400Z,22.80
2017-12-01T17:56:46.681Z,20.53
2017-12-01T17:59:15.831Z,33.55
2017-12-01T18:01:44.102Z,17.47
2017-12-01T18:04:12.409Z,21.93
2017-12-01T18:06:40.732Z,21.33
2017-12-01T18:09:08.996Z,23.60
2017-12-01T18:11:37.254Z,20.97
2017-12-01T18:14:05.652Z,20.83
2017-12-01T18:16:33.915Z,19.83
2017-12-01T18:19:02.192Z,24.15
2017-12-01T18:21:30.952Z,22.52
2017-12-01T18:23:59.227Z,22.50
2017-12-01T18:26:27.520Z,20.77
2017-12-01T18:28:55.792Z,26.00
2017-12-01T18:31:24.079Z,26.20
2017-12-01T18:33:52.430Z,26.97
2017-12-01T18:36:20.749Z,24.60
2017-12-01T18:38:49.005Z,25.50
2017-12-01T18:41:17.290Z,26.48
2017-12-01T18:43:45.592Z,25.63
2017-12-01T18:46:13.836Z,21.10
2017-12-01T18:48:42.143Z,24.73
2017-12-01T18:51:10.416Z,23.90
2017-12-01T18:53:38.732Z,24.80
2017-12-01T18:56:07.035Z,22.60
2017-12-01T18:58:35.376Z,31.10
2017-12-01T19:01:03.759Z,20.50
2017-12-01T19:03:32.019Z,20.23
2017-12-01T19:06:00.298Z,52.07
2017-12-01T19:08:28.638Z,25.70
2017-12-01T19:10:56.900Z,23.40
2017-12-01T19:13:25.183Z,21.37
2017-12-01T19:15:53.527Z,24.70
2017-12-01T19:18:21.738Z,23.73
2017-12-01T19:20:50.056Z,21.10
2017-12-01T19:23:18.338Z,20.08
2017-12-01T19:25:46.595Z,20.20
2017-12-01T19:28:14.878Z,26.00
2017-12-01T19:30:43.190Z,25.40
2017-12-01T19:33:11.464Z,21.70
2017-12-01T19:35:39.784Z,23.73
2017-12-01T19:38:08.144Z,26.43
2017-12-01T19:40:36.499Z,20.77
2017-12-01T19:43:04.817Z,25.07
2017-12-01T19:45:33.092Z,23.03
2017-12-01T19:48:01.455Z,21.43
2017-12-01T19:50:29.732Z,22.48
2017-12-01T19:52:58.033Z,22.80
2017-12-01T19:55:26.296Z,22.60
2017-12-01T19:57:54.632Z,25.20
2017-12-01T20:00:22.895Z,23.87
2017-12-01T20:02:51.192Z,23.53
2017-12-01T20:05:19.488Z,22.13
2017-12-01T20:07:47.779Z,25.80
2017-12-01T20:10:17.061Z,21.23
2017-12-01T20:12:45.333Z,19.93
2017-12-01T20:15:13.639Z,21.53
2017-12-01T20:17:41.932Z,24.00
2017-12-01T20:20:10.196Z,21.63
2017-12-01T20:22:38.504Z,27.67
2017-12-01T20:25:06.829Z,21.37
2017-12-01T20:27:35.147Z,28.73
2017-12-01T20:30:03.411Z,23.00
2017-12-01T20:32:31.760Z,18.73
2017-12-01T20:35:00.049Z,17.90
2017-12-01T20:37:28.332Z,20.85
2017-12-01T20:39:56.859Z,20.27
2017-12-01T20:42:25.279Z,18.27
2017-12-01T20:44:53.579Z,20.30
2017-12-01T20:47:21.845Z,24.80
2017-12-01T20:49:50.158Z,19.37
2017-12-01T20:52:18.446Z,24.27
2017-12-01T20:54:47.426Z,24.43
2017-12-01T20:57:15.680Z,20.93
2017-12-01T20:59:43.992Z,17.40
2017-12-01T21:02:12.296Z,17.20
2017-12-01T21:04:40.590Z,18.03
2017-12-01T21:07:08.903Z,20.13
2017-12-01T21:09:37.201Z,19.17
2017-12-01T21:12:05.485Z,15.97
2017-12-01T21:14:33.812Z,17.50
2017-12-01T21:17:03.675Z,16.50
2017-12-01T21:19:31.937Z,16.85
2017-12-01T21:22:00.314Z,15.37
2017-12-01T21:24:28.589Z,16.80
2017-12-01T21:26:57.898Z,25.77
2017-12-01T21:29:26.151Z,14.67
2017-12-01T21:31:54.422Z,15.57
2017-12-01T21:34:22.891Z,15.33
2017-12-01T21:36:51.285Z,17.43
2017-12-01T21:39:19.615Z,18.27
2017-12-01T21:41:47.911Z,17.17
2017-12-01T21:44:16.235Z,15.93
2017-12-01T21:46:44.507Z,15.05
2017-12-01T21:49:12.803Z,16.77
2017-12-01T21:51:41.088Z,16.23
2017-12-01T21:54:09.367Z,13.80
2017-12-01T21:56:37.643Z,16.33
2017-12-01T21:59:05.971Z,16.97
2017-12-01T22:01:34.763Z,14.80
2017-12-01T22:04:03.040Z,17.62
2017-12-01T22:06:31.356Z,12.68
2017-12-01T22:08:59.643Z,13.73
2017-12-01T22:11:27.963Z,14.13
2017-12-01T22:13:56.270Z,17.83
2017-12-01T22:16:24.665Z,15.13
2017-12-01T22:18:52.967Z,14.80
2017-12-01T22:21:21.247Z,13.82
2017-12-01T22:23:50.197Z,17.35
2017-12-01T22:26:18.495Z,15.40
2017-12-01T22:28:47.716Z,16.77
2017-12-01T22:31:16.248Z,16.97
2017-12-01T22:33:44.622Z,15.93
2017-12-01T22:36:12.942Z,15.73
2017-12-01T22:38:41.324Z,15.60
2017-12-01T22:41:09.684Z,18.40
2017-12-01T22:43:38.018Z,13.80
2017-12-01T22:46:12.354Z,14.77
2017-12-01T22:48:40.632Z,15.63
2017-12-01T22:51:08.917Z,13.98
2017-12-01T22:53:37.234Z,13.53
2017-12-01T22:56:05.499Z,14.60
2017-12-01T22:58:34.169Z,15.75
2017-12-01T23:01:02.474Z,14.80
2017-12-01T23:03:30.735Z,14.27
2017-12-01T23:05:59.010Z,14.40
2017-12-01T23:08:27.304Z,16.87
2017-12-01T23:10:55.597Z,16.00
2017-12-01T23:13:23.908Z,19.20
2017-12-01T23:15:52.186Z,17.97
2017-12-01T23:18:20.479Z,20.60
2017-12-01T23:20:48.770Z,16.50
2017-12-01T23:23:17.040Z,17.05
2017-12-01T23:25:45.361Z,15.37
2017-12-01T23:28:13.631Z,16.53
2017-12-01T23:30:41.957Z,14.00
2017-12-01T23:33:10.261Z,15.73
2017-12-01T23:35:38.559Z,16.60
2017-12-01T23:38:06.847Z,17.83
2017-12-01T23:40:35.167Z,18.13
2017-12-01T23:43:03.427Z,17.57
2017-12-01T23:45:31.729Z,16.80
2017-12-01T23:48:00.053Z,21.00
2017-12-01T23:50:28.427Z,17.80
2017-12-01T23:52:56.699Z,13.80
2017-12-01T23:55:24.970Z,13.93
2017-12-01T23:57:53.253Z,16.27
